Friday, November 17, 2017, 7:35 PM GMT
Back to Local

CXMY, Malay Falls , N. S.

Location: , , Canada Lat: 44.983
Local Time: 7:35 PM GMT (19:35 GMT) Lon: -62.483
Time Zone: GMT Elev: 131 ft

Show me the last for .
Show Coded

Time T Td Feel RH Dir Speed Gust Alt SLP Vis Weather Sky Remarks
2017-11-17 19:00 45 38 - 75 - - - - - 0 None
2017-11-17 18:00 46 38 - 74 - - - - - 0 None
2017-11-17 17:00 44 39 - 84 - - - - - 0 None
2017-11-17 16:00 46 41 - 83 - - - - - 0 None
2017-11-17 15:00 46 42 - 83 - - - - - 0 None
2017-11-17 14:00 44 43 - 97 - - - - - 0 None
2017-11-17 13:00 45 44 - 94 - - - - - 0 None
2017-11-17 12:00 48 47 - 96 - - - - - 0 None
2017-11-17 11:00 48 47 - 96 - - - - - 0 None
2017-11-17 10:00 53 51 - 95 - - - - - 0 1-hr Precip Total: 0.06"
2017-11-17 09:00 52 49 - 88 - - - - - 0 1-hr Precip Total: 0.49"
2017-11-17 08:00 49 49 - 100 - - - - - 0 1-hr Precip Total: 0.18"
2017-11-17 07:00 48 47 - 93 - - - - - 0 1-hr Precip Total: 0.12"
2017-11-17 06:00 47 45 - 92 - - - - - 0 1-hr Precip Total: 0.04"
2017-11-17 05:00 47 45 - 94 - - - - - 0 1-hr Precip Total: 0.18"
2017-11-17 04:00 46 42 - 87 - - - - - 0 1-hr Precip Total: 0.18"
2017-11-17 03:00 46 42 - 85 - - - - - 0 None
2017-11-17 02:00 46 41 - 83 - - - - - 0 None
2017-11-17 01:00 46 40 - 81 - - - - - 0 None
2017-11-17 00:00 45 39 - 79 - - - - - 0 None
2017-11-16 23:00 45 39 - 78 - - - - - 0 None
2017-11-16 22:00 44 37 - 78 - - - - - 0 None
2017-11-16 21:00 43 36 - 76 - - - - - 0 None
2017-11-16 20:00 44 35 - 72 - - - - - 0 None

Support USWX by starting your Amazon purchase here.